KCPS/CPS METAR and TAF weather

Enter ICAO airport designator
Station Type Date Time Source
KCPS METAR 2019/04/18 10:27 UTC NOAA

KCPS 181027Z AUTO VRB06G16KT 7SM RA BKN021 OVC029 19/17 A2960 RMK AO2 LTG DSNT NE RAB0954 TSE08 P0003 T01890172


Station Type Date Time Source
KCPS Decoded METAR 2019/04/18 10:27 UTC NOAA

ST LOUIS DOWNTOWN AIRPORT, IL, United States (KCPS) 38-34N 090-09W 126M
Apr 18, 2019 - 06:27 AM EDT / 2019.04.18 1027 UTC
Wind: Variable at 7 MPH (6 KT) gusting to 18 MPH (16 KT):0
Visibility: 7 mile(s):0
Sky conditions: overcast
Weather: rain; Lightning observed
Precipitation last hour: 0.03 inches
Temperature: 66.0 F (18.9 C)
Dew Point: 63.0 F (17.2 C)
Relative Humidity: 89%
Pressure (altimeter): 29.6 in. Hg (1002 hPa)
ob: KCPS 181027Z AUTO VRB06G16KT 7SM RA BKN021 OVC029 19/17 A2960 RMK AO2 LTG DSNT NE RAB0954 TSE08 P0003 T01890172
cycle: 10

Station Type Date Time Source
KCPS TAF 2019/04/18 07:18 UTC NOAA

TAF
AMD KCPS 180717Z 1807/1906 18010KT 6SM -SHRA BR VCTS BKN015 OVC030CB
TEMPO 1808/1812 5SM -SHRA BR SCT009 OVC012
FM181700 32012G18KT P6SM -SHRA OVC014
FM182300 34009KT P6SM OVC035

Example: see airport list